»·PEaware :: N5002T KSNA-KSNA

N5002T :: KSNA-KSNA

FLIGHT INFORMATION

Flight Status: Arrived
Operator: Privately registered:
United States
More flights under this callsign
Pilot: Hunter M. (19355)
Aircraft: CESSNA 172 SKYHAWK
(C172)
More flights by this aircraft type
Origin: KSNA John Wayne-Orange Co
United States
Destination: KSNA John Wayne-Orange Co
United States
More flights between these airports :: More routes between these airports
Route: +SLI
File this flight plan on PilotEdge
Remarks:
Altitude:
(Current/Filed)
3,000ft
Speed:
(Current/Filed)
0kts
Departed: 25-Oct-18 06:18 PM
Arrived: 25-Oct-18 07:18 PM
Distance/Time
Traveled:
0nm/1:00
Distance/Time
To Go:
Arrived

Flight Plot

Page will automatically refresh every two minutes.


Map Options




Map Legend


Flown Route
Filed Route
Departure Airport
Arrival Airport
Navaid (VOR, NDB)
Fix

Horizontal Profiles

Position Reports

Time Latitude Longitude Heading Altitude Ground
Speed
25-Oct-18 18:07 33.667443 -117.870774 37 59ft 0kts
25-Oct-18 18:08 33.667443 -117.870774 37 59ft 0kts
25-Oct-18 18:09 33.667443 -117.870774 37 59ft 0kts
25-Oct-18 18:10 33.667443 -117.870774 37 59ft 0kts
25-Oct-18 18:11 33.667458 -117.870764 25 59ft 1kts
25-Oct-18 18:12 33.671217 -117.868981 32 59ft 33kts
25-Oct-18 18:13 33.675375 -117.866294 28 59ft 0kts
25-Oct-18 18:14 33.677942 -117.864711 26 59ft 10kts
25-Oct-18 18:15 33.679621 -117.863835 339 59ft 1kts
25-Oct-18 18:16 33.679622 -117.863836 338 59ft 0kts
25-Oct-18 18:17 33.679623 -117.863836 338 59ft 0kts
25-Oct-18 18:18 33.679752 -117.863937 315 59ft 8kts
25-Oct-18 18:19 33.679424 -117.864623 207 59ft 10kts
25-Oct-18 18:20 33.661736 -117.878465 234 469ft 93kts
25-Oct-18 18:21 33.645976 -117.903748 232 1180ft 95kts
25-Oct-18 18:22 33.630185 -117.929163 232 1872ft 94kts
25-Oct-18 18:23 33.612907 -117.956034 232 2002ft 106kts
25-Oct-18 18:24 33.594809 -117.983987 232 1999ft 106kts
25-Oct-18 18:25 33.576745 -118.011977 232 1999ft 106kts
25-Oct-18 18:26 33.558553 -118.039821 232 1995ft 105kts
25-Oct-18 18:27 33.544659 -118.068836 276 2252ft 88kts
25-Oct-18 18:28 33.563461 -118.060524 32 3046ft 100kts
25-Oct-18 18:29 33.586547 -118.039484 32 2994ft 102kts
25-Oct-18 18:30 33.609053 -118.018991 32 2995ft 100kts
25-Oct-18 18:31 33.630935 -117.999001 32 3000ft 98kts
25-Oct-18 18:32 33.652732 -117.979096 32 3000ft 98kts
25-Oct-18 18:33 33.674553 -117.959154 32 2999ft 98kts
25-Oct-18 18:34 33.692698 -117.942551 32 2999ft 98kts
25-Oct-18 18:35 33.718191 -117.919247 32 2999ft 98kts
25-Oct-18 18:36 33.736363 -117.902635 32 2998ft 98kts
25-Oct-18 18:37 33.762412 -117.880708 17 3004ft 95kts
25-Oct-18 18:38 33.782512 -117.868551 22 3000ft 97kts
25-Oct-18 18:39 33.806533 -117.853675 22 3001ft 97kts
25-Oct-18 18:40 33.830648 -117.838754 22 3001ft 97kts
25-Oct-18 18:41 33.854722 -117.823872 22 3002ft 97kts
25-Oct-18 18:42 33.859702 -117.793518 92 3003ft 103kts
25-Oct-18 18:43 33.850512 -117.766419 183 3015ft 92kts
25-Oct-18 18:44 33.825368 -117.771280 212 3005ft 92kts
25-Oct-18 18:45 33.803177 -117.787575 216 2837ft 95kts
25-Oct-18 18:46 33.780722 -117.803226 207 2246ft 87kts
25-Oct-18 18:47 33.762965 -117.814303 203 1687ft 61kts
25-Oct-18 18:48 33.747139 -117.823215 205 1517ft 65kts
25-Oct-18 18:49 33.729447 -117.834459 210 1184ft 79kts
25-Oct-18 18:50 33.710676 -117.846807 204 1045ft 71kts
25-Oct-18 18:51 33.693923 -117.856909 207 334ft 62kts
25-Oct-18 18:52 33.679111 -117.866989 211 275ft 65kts
25-Oct-18 18:53 33.663099 -117.885750 232 867ft 101kts
25-Oct-18 18:54 33.646165 -117.913056 232 1455ft 97kts
25-Oct-18 18:55 33.629989 -117.938695 232 2016ft 103kts
25-Oct-18 18:56 33.617647 -117.968001 307 2101ft 104kts
25-Oct-18 18:57 33.643567 -117.959017 22 2770ft 100kts
25-Oct-18 18:58 33.670137 -117.942878 22 3006ft 112kts
25-Oct-18 18:59 33.696356 -117.926868 22 2995ft 102kts
25-Oct-18 19:00 33.721558 -117.911374 22 2996ft 101kts
25-Oct-18 19:01 33.746722 -117.895880 22 2996ft 102kts
25-Oct-18 19:02 33.771910 -117.880400 22 3000ft 101kts
25-Oct-18 19:03 33.796811 -117.865080 22 2993ft 97kts
25-Oct-18 19:04 33.820517 -117.850366 22 3001ft 95kts
25-Oct-18 19:05 33.844105 -117.835720 22 3002ft 95kts
25-Oct-18 19:06 33.867659 -117.821112 22 3002ft 95kts
25-Oct-18 19:07 33.891290 -117.806453 22 3002ft 95kts
25-Oct-18 19:08 33.890327 -117.777761 112 3007ft 103kts
25-Oct-18 19:09 33.876676 -117.751219 185 2999ft 88kts
25-Oct-18 19:10 33.852930 -117.756084 209 3005ft 87kts
25-Oct-18 19:11 33.831283 -117.769132 213 3002ft 86kts
25-Oct-18 19:12 33.810496 -117.783164 214 2867ft 81kts
25-Oct-18 19:13 33.790716 -117.796031 205 2341ft 80kts
25-Oct-18 19:14 33.771446 -117.807331 209 1928ft 75kts
25-Oct-18 19:15 33.753072 -117.819192 208 1581ft 74kts
25-Oct-18 19:16 33.734851 -117.831364 210 1277ft 74kts
25-Oct-18 19:17 33.716087 -117.843406 204 1105ft 75kts
25-Oct-18 19:18 33.698614 -117.854443 208 397ft 68kts
25-Oct-18 19:19 33.682631 -117.864421 208 111ft 63kts
25-Oct-18 19:20 33.677881 -117.866828 122 59ft 7kts
25-Oct-18 19:21 33.677019 -117.864827 114 59ft 11kts
25-Oct-18 19:22 33.674341 -117.866024 207 59ft 11kts
25-Oct-18 19:23 33.671635 -117.868006 216 59ft 11kts
25-Oct-18 19:24 33.668281 -117.871080 218 59ft 11kts
25-Oct-18 19:25 33.667512 -117.871279 32 59ft 2kts
25-Oct-18 19:26 33.667724 -117.871105 38 59ft 0kts
25-Oct-18 19:27 33.667724 -117.871105 38 59ft 0kts
25-Oct-18 19:28 33.667725 -117.871104 38 59ft 0kts
25-Oct-18 19:29 33.667725 -117.871104 38 59ft 0kts

Navigation Log

Ident Type
Flight plan parsing failed, navigation log unavailable